sensor_id;sensor_type;location;lat;lon;timestamp;P1;durP1;ratioP1;P2;durP2;ratioP2
18336;SDS011;9294;51.106;7.028;2023-04-03T00:02:02;2.00;;;2.00;;
18336;SDS011;9294;51.106;7.028;2023-04-03T00:04:28;1.90;;;1.90;;
18336;SDS011;9294;51.106;7.028;2023-04-03T00:06:55;2.00;;;1.90;;
18336;SDS011;9294;51.106;7.028;2023-04-03T00:09:23;1.92;;;1.92;;
18336;SDS011;9294;51.106;7.028;2023-04-03T00:11:51;1.95;;;1.95;;
18336;SDS011;9294;51.106;7.028;2023-04-03T00:14:18;2.10;;;2.10;;
18336;SDS011;9294;51.106;7.028;2023-04-03T00:16:45;2.40;;;2.30;;
18336;SDS011;9294;51.106;7.028;2023-04-03T00:19:12;2.17;;;2.17;;
18336;SDS011;9294;51.106;7.028;2023-04-03T00:21:38;1.73;;;1.73;;
18336;SDS011;9294;51.106;7.028;2023-04-03T00:24:06;2.00;;;1.95;;
18336;SDS011;9294;51.106;7.028;2023-04-03T00:26:34;1.73;;;1.73;;
18336;SDS011;9294;51.106;7.028;2023-04-03T00:29:01;2.22;;;2.22;;
18336;SDS011;9294;51.106;7.028;2023-04-03T00:31:27;1.95;;;1.95;;
18336;SDS011;9294;51.106;7.028;2023-04-03T00:33:54;2.03;;;2.00;;
18336;SDS011;9294;51.106;7.028;2023-04-03T00:36:21;2.10;;;2.10;;
18336;SDS011;9294;51.106;7.028;2023-04-03T00:38:48;2.10;;;2.10;;
18336;SDS011;9294;51.106;7.028;2023-04-03T00:41:14;2.20;;;2.10;;
18336;SDS011;9294;51.106;7.028;2023-04-03T00:43:43;2.10;;;2.10;;
18336;SDS011;9294;51.106;7.028;2023-04-03T00:46:09;2.30;;;2.20;;
18336;SDS011;9294;51.106;7.028;2023-04-03T00:48:38;2.47;;;2.30;;
18336;SDS011;9294;51.106;7.028;2023-04-03T00:51:08;2.03;;;1.98;;
18336;SDS011;9294;51.106;7.028;2023-04-03T00:53:39;2.28;;;2.17;;
18336;SDS011;9294;51.106;7.028;2023-04-03T00:56:09;1.92;;;1.92;;
18336;SDS011;9294;51.106;7.028;2023-04-03T00:58:39;1.90;;;1.90;;
18336;SDS011;9294;51.106;7.028;2023-04-03T01:01:11;2.00;;;2.00;;
18336;SDS011;9294;51.106;7.028;2023-04-03T01:03:42;2.30;;;2.20;;
18336;SDS011;9294;51.106;7.028;2023-04-03T01:06:08;2.30;;;2.20;;
18336;SDS011;9294;51.106;7.028;2023-04-03T01:08:35;2.10;;;2.10;;
18336;SDS011;9294;51.106;7.028;2023-04-03T01:11:02;2.00;;;2.00;;
18336;SDS011;9294;51.106;7.028;2023-04-03T01:13:30;2.30;;;2.20;;
18336;SDS011;9294;51.106;7.028;2023-04-03T01:16:01;1.90;;;1.90;;
18336;SDS011;9294;51.106;7.028;2023-04-03T01:18:28;2.22;;;2.17;;
18336;SDS011;9294;51.106;7.028;2023-04-03T01:21:03;2.33;;;2.22;;
18336;SDS011;9294;51.106;7.028;2023-04-03T01:23:54;1.77;;;1.77;;
18336;SDS011;9294;51.106;7.028;2023-04-03T01:26:30;2.00;;;2.00;;
18336;SDS011;9294;51.106;7.028;2023-04-03T01:28:59;2.00;;;2.00;;
18336;SDS011;9294;51.106;7.028;2023-04-03T01:31:28;2.00;;;1.90;;
18336;SDS011;9294;51.106;7.028;2023-04-03T01:33:59;2.40;;;2.30;;
18336;SDS011;9294;51.106;7.028;2023-04-03T01:36:27;2.00;;;2.00;;
18336;SDS011;9294;51.106;7.028;2023-04-03T01:38:56;2.33;;;2.25;;
18336;SDS011;9294;51.106;7.028;2023-04-03T01:41:24;2.30;;;2.20;;
18336;SDS011;9294;51.106;7.028;2023-04-03T01:43:51;2.30;;;2.30;;
18336;SDS011;9294;51.106;7.028;2023-04-03T01:46:18;2.17;;;2.10;;
18336;SDS011;9294;51.106;7.028;2023-04-03T01:48:45;2.10;;;2.10;;
18336;SDS011;9294;51.106;7.028;2023-04-03T01:51:14;1.90;;;1.90;;
18336;SDS011;9294;51.106;7.028;2023-04-03T01:53:41;2.25;;;2.15;;
18336;SDS011;9294;51.106;7.028;2023-04-03T01:56:07;2.38;;;2.28;;
18336;SDS011;9294;51.106;7.028;2023-04-03T01:58:35;2.08;;;2.08;;
18336;SDS011;9294;51.106;7.028;2023-04-03T02:01:02;2.35;;;2.30;;
18336;SDS011;9294;51.106;7.028;2023-04-03T02:03:28;2.15;;;2.15;;
18336;SDS011;9294;51.106;7.028;2023-04-03T02:05:55;2.00;;;2.00;;
18336;SDS011;9294;51.106;7.028;2023-04-03T02:08:24;2.05;;;2.05;;
18336;SDS011;9294;51.106;7.028;2023-04-03T02:10:50;2.55;;;2.45;;
18336;SDS011;9294;51.106;7.028;2023-04-03T02:13:17;2.13;;;2.13;;
18336;SDS011;9294;51.106;7.028;2023-04-03T02:15:44;1.90;;;1.90;;
18336;SDS011;9294;51.106;7.028;2023-04-03T02:18:12;1.90;;;1.90;;
18336;SDS011;9294;51.106;7.028;2023-04-03T02:20:39;2.08;;;2.08;;
18336;SDS011;9294;51.106;7.028;2023-04-03T02:23:06;2.10;;;2.10;;
18336;SDS011;9294;51.106;7.028;2023-04-03T02:25:34;2.38;;;2.33;;
18336;SDS011;9294;51.106;7.028;2023-04-03T02:28:01;1.92;;;1.92;;
18336;SDS011;9294;51.106;7.028;2023-04-03T02:30:27;1.92;;;1.83;;
18336;SDS011;9294;51.106;7.028;2023-04-03T02:32:54;2.15;;;2.05;;
18336;SDS011;9294;51.106;7.028;2023-04-03T02:35:21;2.40;;;2.25;;
18336;SDS011;9294;51.106;7.028;2023-04-03T02:37:48;2.10;;;2.10;;
18336;SDS011;9294;51.106;7.028;2023-04-03T02:40:14;2.53;;;2.33;;
18336;SDS011;9294;51.106;7.028;2023-04-03T02:42:43;2.47;;;2.38;;
18336;SDS011;9294;51.106;7.028;2023-04-03T02:45:10;2.22;;;2.13;;
18336;SDS011;9294;51.106;7.028;2023-04-03T02:47:36;2.08;;;2.08;;
18336;SDS011;9294;51.106;7.028;2023-04-03T02:50:04;1.92;;;1.92;;
18336;SDS011;9294;51.106;7.028;2023-04-03T02:52:31;1.73;;;1.73;;
18336;SDS011;9294;51.106;7.028;2023-04-03T02:54:58;2.10;;;2.10;;
18336;SDS011;9294;51.106;7.028;2023-04-03T02:57:24;1.70;;;1.70;;
18336;SDS011;9294;51.106;7.028;2023-04-03T02:59:52;2.03;;;2.00;;
18336;SDS011;9294;51.106;7.028;2023-04-03T03:02:19;1.88;;;1.88;;
18336;SDS011;9294;51.106;7.028;2023-04-03T03:04:46;1.98;;;1.90;;
18336;SDS011;9294;51.106;7.028;2023-04-03T03:07:13;2.03;;;2.03;;
18336;SDS011;9294;51.106;7.028;2023-04-03T03:09:39;2.10;;;2.00;;
18336;SDS011;9294;51.106;7.028;2023-04-03T03:12:06;2.20;;;2.17;;
18336;SDS011;9294;51.106;7.028;2023-04-03T03:14:33;2.05;;;2.00;;
18336;SDS011;9294;51.106;7.028;2023-04-03T03:17:01;2.17;;;2.05;;
18336;SDS011;9294;51.106;7.028;2023-04-03T03:19:28;2.28;;;2.08;;
18336;SDS011;9294;51.106;7.028;2023-04-03T03:21:55;2.60;;;2.50;;
18336;SDS011;9294;51.106;7.028;2023-04-03T03:24:21;2.10;;;2.00;;
18336;SDS011;9294;51.106;7.028;2023-04-03T03:26:48;2.25;;;2.15;;
18336;SDS011;9294;51.106;7.028;2023-04-03T03:29:15;1.88;;;1.88;;
18336;SDS011;9294;51.106;7.028;2023-04-03T03:31:42;2.30;;;2.20;;
18336;SDS011;9294;51.106;7.028;2023-04-03T03:34:10;2.33;;;2.22;;
18336;SDS011;9294;51.106;7.028;2023-04-03T03:36:37;1.70;;;1.70;;
18336;SDS011;9294;51.106;7.028;2023-04-03T03:39:03;2.25;;;2.15;;
18336;SDS011;9294;51.106;7.028;2023-04-03T03:41:30;1.98;;;1.98;;
18336;SDS011;9294;51.106;7.028;2023-04-03T03:43:57;2.10;;;2.03;;
18336;SDS011;9294;51.106;7.028;2023-04-03T03:46:24;2.00;;;2.00;;
18336;SDS011;9294;51.106;7.028;2023-04-03T03:48:50;1.70;;;1.70;;
18336;SDS011;9294;51.106;7.028;2023-04-03T03:51:18;2.15;;;2.10;;
18336;SDS011;9294;51.106;7.028;2023-04-03T03:53:45;1.92;;;1.92;;
18336;SDS011;9294;51.106;7.028;2023-04-03T03:56:12;1.92;;;1.92;;
18336;SDS011;9294;51.106;7.028;2023-04-03T03:58:39;1.90;;;1.90;;
18336;SDS011;9294;51.106;7.028;2023-04-03T04:01:06;2.00;;;2.00;;
18336;SDS011;9294;51.106;7.028;2023-04-03T04:03:33;1.92;;;1.83;;
18336;SDS011;9294;51.106;7.028;2023-04-03T04:06:00;1.73;;;1.73;;
18336;SDS011;9294;51.106;7.028;2023-04-03T04:08:28;1.75;;;1.75;;
18336;SDS011;9294;51.106;7.028;2023-04-03T04:10:55;1.58;;;1.58;;
18336;SDS011;9294;51.106;7.028;2023-04-03T04:13:21;1.63;;;1.63;;
18336;SDS011;9294;51.106;7.028;2023-04-03T04:15:48;2.05;;;1.95;;
18336;SDS011;9294;51.106;7.028;2023-04-03T04:18:15;1.40;;;1.40;;
18336;SDS011;9294;51.106;7.028;2023-04-03T04:20:44;1.77;;;1.67;;
18336;SDS011;9294;51.106;7.028;2023-04-03T04:23:11;1.70;;;1.70;;
18336;SDS011;9294;51.106;7.028;2023-04-03T04:25:39;1.75;;;1.75;;
18336;SDS011;9294;51.106;7.028;2023-04-03T04:28:06;1.73;;;1.67;;
18336;SDS011;9294;51.106;7.028;2023-04-03T04:30:32;1.63;;;1.63;;
18336;SDS011;9294;51.106;7.028;2023-04-03T04:32:59;1.80;;;1.70;;
18336;SDS011;9294;51.106;7.028;2023-04-03T04:35:26;2.03;;;1.92;;
18336;SDS011;9294;51.106;7.028;2023-04-03T04:37:53;1.50;;;1.50;;
18336;SDS011;9294;51.106;7.028;2023-04-03T04:40:19;1.50;;;1.50;;
18336;SDS011;9294;51.106;7.028;2023-04-03T04:42:48;1.38;;;1.38;;
18336;SDS011;9294;51.106;7.028;2023-04-03T04:45:14;1.50;;;1.50;;
18336;SDS011;9294;51.106;7.028;2023-04-03T04:47:41;1.70;;;1.60;;
18336;SDS011;9294;51.106;7.028;2023-04-03T04:50:09;1.27;;;1.27;;
18336;SDS011;9294;51.106;7.028;2023-04-03T04:52:36;1.90;;;1.80;;
18336;SDS011;9294;51.106;7.028;2023-04-03T04:55:03;1.77;;;1.67;;
18336;SDS011;9294;51.106;7.028;2023-04-03T04:57:31;1.48;;;1.40;;
18336;SDS011;9294;51.106;7.028;2023-04-03T04:59:59;1.73;;;1.73;;
18336;SDS011;9294;51.106;7.028;2023-04-03T05:02:26;1.50;;;1.50;;
18336;SDS011;9294;51.106;7.028;2023-04-03T05:04:52;1.40;;;1.40;;
18336;SDS011;9294;51.106;7.028;2023-04-03T05:07:19;1.60;;;1.55;;
18336;SDS011;9294;51.106;7.028;2023-04-03T05:09:46;1.40;;;1.40;;
18336;SDS011;9294;51.106;7.028;2023-04-03T05:12:12;1.60;;;1.60;;
18336;SDS011;9294;51.106;7.028;2023-04-03T05:14:39;1.85;;;1.70;;
18336;SDS011;9294;51.106;7.028;2023-04-03T05:17:07;1.65;;;1.65;;
18336;SDS011;9294;51.106;7.028;2023-04-03T05:19:34;1.33;;;1.33;;
18336;SDS011;9294;51.106;7.028;2023-04-03T05:22:01;1.33;;;1.33;;
18336;SDS011;9294;51.106;7.028;2023-04-03T05:24:27;1.25;;;1.23;;
18336;SDS011;9294;51.106;7.028;2023-04-03T05:26:54;1.42;;;1.40;;
18336;SDS011;9294;51.106;7.028;2023-04-03T05:29:21;1.30;;;1.30;;
18336;SDS011;9294;51.106;7.028;2023-04-03T05:31:48;1.50;;;1.40;;
18336;SDS011;9294;51.106;7.028;2023-04-03T05:34:16;1.48;;;1.42;;
18336;SDS011;9294;51.106;7.028;2023-04-03T05:36:43;1.52;;;1.50;;
18336;SDS011;9294;51.106;7.028;2023-04-03T05:39:10;1.30;;;1.30;;
18336;SDS011;9294;51.106;7.028;2023-04-03T05:41:37;1.63;;;1.52;;
18336;SDS011;9294;51.106;7.028;2023-04-03T05:44:03;1.25;;;1.25;;
18336;SDS011;9294;51.106;7.028;2023-04-03T05:46:30;1.42;;;1.42;;
18336;SDS011;9294;51.106;7.028;2023-04-03T05:48:58;1.25;;;1.25;;
18336;SDS011;9294;51.106;7.028;2023-04-03T05:51:28;1.52;;;1.42;;
18336;SDS011;9294;51.106;7.028;2023-04-03T05:53:59;1.30;;;1.30;;
18336;SDS011;9294;51.106;7.028;2023-04-03T05:56:30;1.23;;;1.23;;
18336;SDS011;9294;51.106;7.028;2023-04-03T05:58:57;1.40;;;1.40;;
18336;SDS011;9294;51.106;7.028;2023-04-03T06:01:24;1.70;;;1.60;;
18336;SDS011;9294;51.106;7.028;2023-04-03T06:03:51;1.10;;;1.10;;
18336;SDS011;9294;51.106;7.028;2023-04-03T06:06:19;1.50;;;1.40;;
18336;SDS011;9294;51.106;7.028;2023-04-03T06:08:48;1.40;;;1.40;;
18336;SDS011;9294;51.106;7.028;2023-04-03T06:11:15;1.30;;;1.30;;
18336;SDS011;9294;51.106;7.028;2023-04-03T06:13:41;1.40;;;1.40;;
18336;SDS011;9294;51.106;7.028;2023-04-03T06:16:09;1.42;;;1.42;;
18336;SDS011;9294;51.106;7.028;2023-04-03T06:18:39;1.23;;;1.23;;
18336;SDS011;9294;51.106;7.028;2023-04-03T06:21:06;1.35;;;1.35;;
18336;SDS011;9294;51.106;7.028;2023-04-03T06:23:33;1.30;;;1.30;;
18336;SDS011;9294;51.106;7.028;2023-04-03T06:26:01;1.30;;;1.23;;
18336;SDS011;9294;51.106;7.028;2023-04-03T06:28:27;1.10;;;1.10;;
18336;SDS011;9294;51.106;7.028;2023-04-03T06:30:54;1.10;;;1.10;;
18336;SDS011;9294;51.106;7.028;2023-04-03T06:33:21;1.50;;;1.50;;
18336;SDS011;9294;51.106;7.028;2023-04-03T06:35:48;1.50;;;1.50;;
18336;SDS011;9294;51.106;7.028;2023-04-03T06:38:14;1.27;;;1.27;;
18336;SDS011;9294;51.106;7.028;2023-04-03T06:40:43;1.25;;;1.25;;
18336;SDS011;9294;51.106;7.028;2023-04-03T06:43:12;1.10;;;1.10;;
18336;SDS011;9294;51.106;7.028;2023-04-03T06:45:38;1.52;;;1.50;;
18336;SDS011;9294;51.106;7.028;2023-04-03T06:48:05;1.17;;;1.17;;
18336;SDS011;9294;51.106;7.028;2023-04-03T06:50:32;1.23;;;1.20;;
18336;SDS011;9294;51.106;7.028;2023-04-03T06:52:59;1.45;;;1.40;;
18336;SDS011;9294;51.106;7.028;2023-04-03T06:55:26;1.20;;;1.20;;
18336;SDS011;9294;51.106;7.028;2023-04-03T06:57:52;1.30;;;1.30;;
18336;SDS011;9294;51.106;7.028;2023-04-03T07:00:21;1.10;;;1.10;;
18336;SDS011;9294;51.106;7.028;2023-04-03T07:02:47;1.13;;;1.13;;
18336;SDS011;9294;51.106;7.028;2023-04-03T07:05:14;1.52;;;1.42;;
18336;SDS011;9294;51.106;7.028;2023-04-03T07:07:41;1.40;;;1.30;;
18336;SDS011;9294;51.106;7.028;2023-04-03T07:10:08;1.30;;;1.30;;
18336;SDS011;9294;51.106;7.028;2023-04-03T07:12:35;1.50;;;1.50;;
18336;SDS011;9294;51.106;7.028;2023-04-03T07:15:03;1.30;;;1.30;;
18336;SDS011;9294;51.106;7.028;2023-04-03T07:17:32;1.35;;;1.35;;
18336;SDS011;9294;51.106;7.028;2023-04-03T07:19:59;1.25;;;1.25;;
18336;SDS011;9294;51.106;7.028;2023-04-03T07:22:25;1.20;;;1.17;;
18336;SDS011;9294;51.106;7.028;2023-04-03T07:24:52;1.27;;;1.27;;
18336;SDS011;9294;51.106;7.028;2023-04-03T07:27:19;1.23;;;1.23;;
18336;SDS011;9294;51.106;7.028;2023-04-03T07:29:46;1.35;;;1.35;;
18336;SDS011;9294;51.106;7.028;2023-04-03T07:32:13;1.63;;;1.52;;
18336;SDS011;9294;51.106;7.028;2023-04-03T07:34:41;1.40;;;1.40;;
18336;SDS011;9294;51.106;7.028;2023-04-03T07:37:08;1.45;;;1.35;;
18336;SDS011;9294;51.106;7.028;2023-04-03T07:39:35;1.20;;;1.20;;
18336;SDS011;9294;51.106;7.028;2023-04-03T07:42:02;1.33;;;1.33;;
18336;SDS011;9294;51.106;7.028;2023-04-03T07:44:29;1.33;;;1.33;;
18336;SDS011;9294;51.106;7.028;2023-04-03T07:46:56;1.15;;;1.15;;
18336;SDS011;9294;51.106;7.028;2023-04-03T07:49:22;1.38;;;1.38;;
18336;SDS011;9294;51.106;7.028;2023-04-03T07:51:51;1.05;;;1.05;;
18336;SDS011;9294;51.106;7.028;2023-04-03T07:54:18;1.38;;;1.30;;
18336;SDS011;9294;51.106;7.028;2023-04-03T07:56:44;1.15;;;1.15;;
18336;SDS011;9294;51.106;7.028;2023-04-03T07:59:11;1.00;;;1.00;;
18336;SDS011;9294;51.106;7.028;2023-04-03T08:01:38;1.38;;;1.38;;
18336;SDS011;9294;51.106;7.028;2023-04-03T08:04:05;1.00;;;1.00;;
18336;SDS011;9294;51.106;7.028;2023-04-03T08:06:32;1.10;;;1.10;;
18336;SDS011;9294;51.106;7.028;2023-04-03T08:09:02;1.50;;;1.50;;
18336;SDS011;9294;51.106;7.028;2023-04-03T08:11:29;1.13;;;1.13;;
18336;SDS011;9294;51.106;7.028;2023-04-03T08:13:56;1.20;;;1.20;;
18336;SDS011;9294;51.106;7.028;2023-04-03T08:16:23;1.10;;;1.10;;
18336;SDS011;9294;51.106;7.028;2023-04-03T08:18:51;1.00;;;1.00;;
18336;SDS011;9294;51.106;7.028;2023-04-03T08:21:18;1.15;;;1.15;;
18336;SDS011;9294;51.106;7.028;2023-04-03T08:23:47;1.23;;;1.23;;
18336;SDS011;9294;51.106;7.028;2023-04-03T08:26:17;1.30;;;1.30;;
18336;SDS011;9294;51.106;7.028;2023-04-03T08:28:45;1.10;;;1.10;;
18336;SDS011;9294;51.106;7.028;2023-04-03T08:31:13;1.20;;;1.20;;
18336;SDS011;9294;51.106;7.028;2023-04-03T08:33:42;1.17;;;1.17;;
18336;SDS011;9294;51.106;7.028;2023-04-03T08:36:16;0.98;;;0.98;;
18336;SDS011;9294;51.106;7.028;2023-04-03T08:38:44;1.00;;;1.00;;
18336;SDS011;9294;51.106;7.028;2023-04-03T08:41:13;1.20;;;1.20;;
18336;SDS011;9294;51.106;7.028;2023-04-03T08:43:46;1.27;;;1.20;;
18336;SDS011;9294;51.106;7.028;2023-04-03T08:46:22;1.00;;;1.00;;
18336;SDS011;9294;51.106;7.028;2023-04-03T08:48:52;0.98;;;0.98;;
18336;SDS011;9294;51.106;7.028;2023-04-03T08:51:20;0.90;;;0.90;;
18336;SDS011;9294;51.106;7.028;2023-04-03T08:53:52;1.30;;;1.20;;
18336;SDS011;9294;51.106;7.028;2023-04-03T08:56:22;1.40;;;1.33;;
18336;SDS011;9294;51.106;7.028;2023-04-03T08:58:54;1.52;;;1.30;;
18336;SDS011;9294;51.106;7.028;2023-04-03T09:01:23;0.95;;;0.95;;
18336;SDS011;9294;51.106;7.028;2023-04-03T09:03:53;1.10;;;1.10;;
18336;SDS011;9294;51.106;7.028;2023-04-03T09:06:21;1.20;;;1.20;;
18336;SDS011;9294;51.106;7.028;2023-04-03T09:08:50;1.20;;;1.20;;
18336;SDS011;9294;51.106;7.028;2023-04-03T09:11:23;1.10;;;1.10;;
18336;SDS011;9294;51.106;7.028;2023-04-03T09:13:56;1.00;;;1.00;;
18336;SDS011;9294;51.106;7.028;2023-04-03T09:16:30;0.88;;;0.88;;
18336;SDS011;9294;51.106;7.028;2023-04-03T09:19:07;1.00;;;1.00;;
18336;SDS011;9294;51.106;7.028;2023-04-03T09:21:42;1.38;;;1.38;;
18336;SDS011;9294;51.106;7.028;2023-04-03T09:24:09;1.10;;;1.10;;
18336;SDS011;9294;51.106;7.028;2023-04-03T09:26:39;1.33;;;1.33;;
18336;SDS011;9294;51.106;7.028;2023-04-03T09:29:13;1.25;;;1.15;;
18336;SDS011;9294;51.106;7.028;2023-04-03T09:31:44;1.15;;;1.10;;
18336;SDS011;9294;51.106;7.028;2023-04-03T09:34:13;1.00;;;1.00;;
18336;SDS011;9294;51.106;7.028;2023-04-03T09:36:46;0.95;;;0.95;;
18336;SDS011;9294;51.106;7.028;2023-04-03T09:39:15;1.45;;;0.88;;
18336;SDS011;9294;51.106;7.028;2023-04-03T09:41:55;1.02;;;1.02;;
18336;SDS011;9294;51.106;7.028;2023-04-03T09:44:26;1.05;;;0.95;;
18336;SDS011;9294;51.106;7.028;2023-04-03T09:46:55;1.42;;;1.30;;
18336;SDS011;9294;51.106;7.028;2023-04-03T09:49:22;3.30;;;1.17;;
18336;SDS011;9294;51.106;7.028;2023-04-03T09:51:49;5.53;;;1.70;;
18336;SDS011;9294;51.106;7.028;2023-04-03T09:54:24;2.90;;;1.45;;
18336;SDS011;9294;51.106;7.028;2023-04-03T09:57:01;2.08;;;1.25;;
18336;SDS011;9294;51.106;7.028;2023-04-03T09:59:34;2.75;;;1.55;;
18336;SDS011;9294;51.106;7.028;2023-04-03T10:02:02;2.25;;;1.20;;
18336;SDS011;9294;51.106;7.028;2023-04-03T10:04:40;2.08;;;1.30;;
18336;SDS011;9294;51.106;7.028;2023-04-03T10:10:03;3.20;;;1.52;;
18336;SDS011;9294;51.106;7.028;2023-04-03T10:12:43;3.15;;;2.00;;
18336;SDS011;9294;51.106;7.028;2023-04-03T10:15:13;1.75;;;1.40;;
18336;SDS011;9294;51.106;7.028;2023-04-03T10:17:47;1.00;;;1.00;;
18336;SDS011;9294;51.106;7.028;2023-04-03T10:20:24;1.85;;;1.10;;
18336;SDS011;9294;51.106;7.028;2023-04-03T10:23:00;1.15;;;1.05;;
18336;SDS011;9294;51.106;7.028;2023-04-03T10:25:39;1.30;;;1.30;;
18336;SDS011;9294;51.106;7.028;2023-04-03T10:28:10;1.10;;;1.10;;
18336;SDS011;9294;51.106;7.028;2023-04-03T10:30:45;0.93;;;0.93;;
18336;SDS011;9294;51.106;7.028;2023-04-03T10:33:19;2.50;;;1.25;;
18336;SDS011;9294;51.106;7.028;2023-04-03T10:35:58;1.75;;;1.08;;
18336;SDS011;9294;51.106;7.028;2023-04-03T10:38:39;2.78;;;1.30;;
18336;SDS011;9294;51.106;7.028;2023-04-03T10:41:16;1.48;;;1.35;;
18336;SDS011;9294;51.106;7.028;2023-04-03T10:43:54;2.28;;;1.30;;
18336;SDS011;9294;51.106;7.028;2023-04-03T10:46:31;2.05;;;1.40;;
18336;SDS011;9294;51.106;7.028;2023-04-03T10:49:14;4.93;;;1.20;;
18336;SDS011;9294;51.106;7.028;2023-04-03T10:51:48;1.00;;;1.00;;
18336;SDS011;9294;51.106;7.028;2023-04-03T10:54:25;1.48;;;1.10;;
18336;SDS011;9294;51.106;7.028;2023-04-03T10:56:56;1.20;;;1.10;;
18336;SDS011;9294;51.106;7.028;2023-04-03T10:59:28;3.47;;;1.00;;
18336;SDS011;9294;51.106;7.028;2023-04-03T11:02:00;2.42;;;1.63;;
18336;SDS011;9294;51.106;7.028;2023-04-03T11:04:33;2.15;;;1.17;;
18336;SDS011;9294;51.106;7.028;2023-04-03T11:07:04;1.08;;;0.98;;
18336;SDS011;9294;51.106;7.028;2023-04-03T11:09:37;1.17;;;1.00;;
18336;SDS011;9294;51.106;7.028;2023-04-03T11:12:10;1.38;;;1.27;;
18336;SDS011;9294;51.106;7.028;2023-04-03T11:14:43;2.22;;;1.17;;
18336;SDS011;9294;51.106;7.028;2023-04-03T11:17:23;1.77;;;0.90;;
18336;SDS011;9294;51.106;7.028;2023-04-03T11:19:58;3.72;;;1.27;;
18336;SDS011;9294;51.106;7.028;2023-04-03T11:22:32;3.05;;;1.20;;
18336;SDS011;9294;51.106;7.028;2023-04-03T11:25:03;6.13;;;1.70;;
18336;SDS011;9294;51.106;7.028;2023-04-03T11:27:37;6.32;;;2.08;;
18336;SDS011;9294;51.106;7.028;2023-04-03T11:30:13;1.25;;;1.15;;
18336;SDS011;9294;51.106;7.028;2023-04-03T11:32:53;3.72;;;1.45;;
18336;SDS011;9294;51.106;7.028;2023-04-03T11:35:36;6.55;;;1.60;;
18336;SDS011;9294;51.106;7.028;2023-04-03T11:38:10;3.95;;;1.52;;
18336;SDS011;9294;51.106;7.028;2023-04-03T11:40:45;4.00;;;1.65;;
18336;SDS011;9294;51.106;7.028;2023-04-03T11:43:24;3.17;;;1.27;;
18336;SDS011;9294;51.106;7.028;2023-04-03T11:45:55;2.92;;;1.08;;
18336;SDS011;9294;51.106;7.028;2023-04-03T11:54:42;3.10;;;1.25;;
18336;SDS011;9294;51.106;7.028;2023-04-03T11:57:22;3.38;;;1.25;;
18336;SDS011;9294;51.106;7.028;2023-04-03T12:00:50;1.25;;;0.93;;
18336;SDS011;9294;51.106;7.028;2023-04-03T12:03:32;2.67;;;1.38;;
18336;SDS011;9294;51.106;7.028;2023-04-03T12:09:27;2.50;;;1.10;;
18336;SDS011;9294;51.106;7.028;2023-04-03T12:23:58;2.53;;;1.25;;
18336;SDS011;9294;51.106;7.028;2023-04-03T12:26:30;2.25;;;1.42;;
18336;SDS011;9294;51.106;7.028;2023-04-03T12:29:01;3.38;;;1.00;;
18336;SDS011;9294;51.106;7.028;2023-04-03T12:31:33;1.58;;;1.48;;
18336;SDS011;9294;51.106;7.028;2023-04-03T12:34:14;3.42;;;1.17;;
18336;SDS011;9294;51.106;7.028;2023-04-03T12:36:54;1.30;;;1.20;;
18336;SDS011;9294;51.106;7.028;2023-04-03T12:39:41;1.75;;;0.90;;
18336;SDS011;9294;51.106;7.028;2023-04-03T12:42:26;1.27;;;0.98;;
18336;SDS011;9294;51.106;7.028;2023-04-03T12:45:09;1.30;;;1.15;;
18336;SDS011;9294;51.106;7.028;2023-04-03T12:47:42;2.28;;;0.93;;
18336;SDS011;9294;51.106;7.028;2023-04-03T12:50:16;1.10;;;1.00;;
18336;SDS011;9294;51.106;7.028;2023-04-03T12:52:47;1.08;;;0.98;;
18336;SDS011;9294;51.106;7.028;2023-04-03T12:55:19;2.15;;;1.17;;
18336;SDS011;9294;51.106;7.028;2023-04-03T12:57:48;1.33;;;1.13;;
18336;SDS011;9294;51.106;7.028;2023-04-03T13:00:22;1.33;;;1.23;;
18336;SDS011;9294;51.106;7.028;2023-04-03T13:02:55;4.63;;;1.15;;
18336;SDS011;9294;51.106;7.028;2023-04-03T13:05:22;1.00;;;1.00;;
18336;SDS011;9294;51.106;7.028;2023-04-03T13:07:50;1.05;;;0.98;;
18336;SDS011;9294;51.106;7.028;2023-04-03T13:10:21;4.88;;;0.93;;
18336;SDS011;9294;51.106;7.028;2023-04-03T13:12:50;1.45;;;1.00;;
18336;SDS011;9294;51.106;7.028;2023-04-03T13:15:18;2.17;;;0.98;;
18336;SDS011;9294;51.106;7.028;2023-04-03T13:17:47;2.25;;;1.50;;
18336;SDS011;9294;51.106;7.028;2023-04-03T13:20:18;1.45;;;1.08;;
18336;SDS011;9294;51.106;7.028;2023-04-03T13:22:48;1.40;;;1.13;;
18336;SDS011;9294;51.106;7.028;2023-04-03T13:25:18;2.85;;;1.00;;
18336;SDS011;9294;51.106;7.028;2023-04-03T13:27:46;1.58;;;1.08;;
18336;SDS011;9294;51.106;7.028;2023-04-03T13:30:23;2.05;;;1.00;;
18336;SDS011;9294;51.106;7.028;2023-04-03T13:32:53;1.85;;;1.10;;
18336;SDS011;9294;51.106;7.028;2023-04-03T13:35:28;2.28;;;1.17;;
18336;SDS011;9294;51.106;7.028;2023-04-03T13:38:02;5.18;;;1.17;;
18336;SDS011;9294;51.106;7.028;2023-04-03T13:40:31;4.28;;;1.38;;
18336;SDS011;9294;51.106;7.028;2023-04-03T13:42:59;6.20;;;1.52;;
18336;SDS011;9294;51.106;7.028;2023-04-03T13:45:32;6.15;;;1.23;;
18336;SDS011;9294;51.106;7.028;2023-04-03T13:48:07;2.33;;;1.13;;
18336;SDS011;9294;51.106;7.028;2023-04-03T13:50:53;2.08;;;1.23;;
18336;SDS011;9294;51.106;7.028;2023-04-03T13:53:23;3.35;;;1.20;;
18336;SDS011;9294;51.106;7.028;2023-04-03T13:55:56;2.20;;;1.20;;
18336;SDS011;9294;51.106;7.028;2023-04-03T13:58:25;7.03;;;1.40;;
18336;SDS011;9294;51.106;7.028;2023-04-03T14:00:55;2.95;;;1.23;;
18336;SDS011;9294;51.106;7.028;2023-04-03T14:03:26;5.85;;;1.13;;
18336;SDS011;9294;51.106;7.028;2023-04-03T14:05:55;9.43;;;1.35;;
18336;SDS011;9294;51.106;7.028;2023-04-03T14:08:22;3.50;;;1.40;;
18336;SDS011;9294;51.106;7.028;2023-04-03T14:10:49;5.10;;;1.08;;
18336;SDS011;9294;51.106;7.028;2023-04-03T14:13:17;1.75;;;1.40;;
18336;SDS011;9294;51.106;7.028;2023-04-03T14:15:46;2.40;;;1.30;;
18336;SDS011;9294;51.106;7.028;2023-04-03T14:18:17;5.28;;;1.40;;
18336;SDS011;9294;51.106;7.028;2023-04-03T14:20:45;1.70;;;1.10;;
18336;SDS011;9294;51.106;7.028;2023-04-03T14:23:13;2.22;;;1.27;;
18336;SDS011;9294;51.106;7.028;2023-04-03T14:25:40;4.75;;;1.10;;
18336;SDS011;9294;51.106;7.028;2023-04-03T14:28:13;2.70;;;1.20;;
18336;SDS011;9294;51.106;7.028;2023-04-03T14:30:43;3.30;;;1.75;;
18336;SDS011;9294;51.106;7.028;2023-04-03T14:33:12;0.95;;;0.93;;
18336;SDS011;9294;51.106;7.028;2023-04-03T14:35:42;1.63;;;1.00;;
18336;SDS011;9294;51.106;7.028;2023-04-03T14:38:12;3.30;;;1.27;;
18336;SDS011;9294;51.106;7.028;2023-04-03T14:40:48;1.20;;;1.10;;
18336;SDS011;9294;51.106;7.028;2023-04-03T14:43:15;1.58;;;1.05;;
18336;SDS011;9294;51.106;7.028;2023-04-03T14:45:42;4.75;;;1.75;;
18336;SDS011;9294;51.106;7.028;2023-04-03T14:48:09;6.00;;;2.13;;
18336;SDS011;9294;51.106;7.028;2023-04-03T14:50:44;12.90;;;1.80;;
18336;SDS011;9294;51.106;7.028;2023-04-03T14:53:12;2.80;;;1.95;;
18336;SDS011;9294;51.106;7.028;2023-04-03T14:55:40;2.40;;;0.88;;
18336;SDS011;9294;51.106;7.028;2023-04-03T14:58:08;2.95;;;1.45;;
18336;SDS011;9294;51.106;7.028;2023-04-03T15:00:39;1.77;;;0.90;;
18336;SDS011;9294;51.106;7.028;2023-04-03T15:03:09;7.07;;;1.35;;
18336;SDS011;9294;51.106;7.028;2023-04-03T15:05:39;5.05;;;1.52;;
18336;SDS011;9294;51.106;7.028;2023-04-03T15:08:09;2.13;;;1.15;;
18336;SDS011;9294;51.106;7.028;2023-04-03T15:10:46;5.35;;;1.58;;
18336;SDS011;9294;51.106;7.028;2023-04-03T15:13:15;4.07;;;1.55;;
18336;SDS011;9294;51.106;7.028;2023-04-03T15:15:41;3.45;;;1.50;;
18336;SDS011;9294;51.106;7.028;2023-04-03T15:18:10;4.50;;;1.50;;
18336;SDS011;9294;51.106;7.028;2023-04-03T15:20:42;2.17;;;1.20;;
18336;SDS011;9294;51.106;7.028;2023-04-03T15:23:12;0.90;;;0.90;;
18336;SDS011;9294;51.106;7.028;2023-04-03T15:25:40;2.17;;;1.20;;
18336;SDS011;9294;51.106;7.028;2023-04-03T15:28:08;9.02;;;1.55;;
18336;SDS011;9294;51.106;7.028;2023-04-03T15:30:36;3.60;;;1.42;;
18336;SDS011;9294;51.106;7.028;2023-04-03T15:33:06;2.97;;;1.13;;
18336;SDS011;9294;51.106;7.028;2023-04-03T15:35:33;2.60;;;0.80;;
18336;SDS011;9294;51.106;7.028;2023-04-03T15:38:00;1.27;;;0.80;;
18336;SDS011;9294;51.106;7.028;2023-04-03T15:40:28;1.30;;;1.00;;